WetterOnline ( https://www.wetteronline.de )

Wetter aktuell Walsrode

Aktuelles Wetter: Soltau (76m)

6-stündlich | Neueste Meldungen
Ortszeit Temperatur Wetter
Fr, 27.05. 20:00 12.4° C wolkig
Fr, 27.05. 14:00 14.2° C bewölkt
Fr, 27.05. 8:00 12.4° C bewölkt
Fr, 27.05. 2:00 13.5° C bedeckt
Do, 26.05. 20:00 15.1° C bewölkt
Do, 26.05. 14:00 18.4° C bewölkt
Do, 26.05. 8:00 13.1° C bewölkt
Do, 26.05. 2:00 14.5° C bedeckt
Ortszeit Temperatur Wetter
Fr, 27.05. 23:30 8.4° C leicht bewölkt
Fr, 27.05. 23:20 8.4° C leicht bewölkt
Fr, 27.05. 23:10 8.4° C leicht bewölkt
Fr, 27.05. 23:00 8.8° C Regen
Fr, 27.05. 22:50 8.8° C Regen
Fr, 27.05. 22:40 9.0° C Regen
Fr, 27.05. 22:30 10.5° C leichter Regen
Fr, 27.05. 22:00 10.6° C wolkig
Fr, 27.05. 21:30 10.6° C wolkig
Fr, 27.05. 21:00 10.9° C bewölkt
Fr, 27.05. 20:30 11.3° C leicht bewölkt
Ortszeit Relative Feuchte Sichtweite
Fr, 27.05. 20:00 61% 45 km
Fr, 27.05. 14:00 54% 40 km
Fr, 27.05. 8:00 81% 45 km
Fr, 27.05. 2:00 93% 27 km
Do, 26.05. 20:00 76% 50 km
Do, 26.05. 14:00 50% 65 km
Do, 26.05. 8:00 89% 27 km
Do, 26.05. 2:00 66% 60 km
Ortszeit Relative Feuchte Sichtweite
Fr, 27.05. 23:30 90% 50 km
Fr, 27.05. 23:20 90% -
Fr, 27.05. 23:10 90% -
Fr, 27.05. 23:00 86% 9 km
Fr, 27.05. 22:50 86% -
Fr, 27.05. 22:40 84% -
Fr, 27.05. 22:30 77% 24 km
Fr, 27.05. 22:00 75% 40 km
Fr, 27.05. 21:30 75% 40 km
Fr, 27.05. 21:00 70% 50 km
Fr, 27.05. 20:30 70% 45 km
Ortszeit Niederschlagsmenge Niederschlagsart
Fr, 27.05. 20:00 0.1 l/m2 in 12 Std. Regen
Fr, 27.05. 14:00 0.1 l/m2 in 6 Std. Regen
Fr, 27.05. 8:00 4 l/m2 in 12 Std. Regen
Fr, 27.05. 2:00 2 l/m2 in 6 Std. Regen
Do, 26.05. 20:00 0.1 l/m2 in 12 Std. Regen
Do, 26.05. 14:00 0.0 l/m2 in 6 Std. -
Do, 26.05. 8:00 1 l/m2 in 12 Std. Regen
Do, 26.05. 2:00 0.1 l/m2 in 6 Std. Regen
Ortszeit Niederschlagsmenge Niederschlagsart
Fr, 27.05. 23:30 0.1 l/m2 in 1 Std. Schneeregen
Fr, 27.05. 23:20 keine Meldung -
Fr, 27.05. 23:10 keine Meldung -
Fr, 27.05. 23:00 0.7 l/m2 in 1 Std. Regen
Fr, 27.05. 22:50 keine Meldung -
Fr, 27.05. 22:40 keine Meldung -
Fr, 27.05. 22:30 0.1 l/m2 in 1 Std. -
Fr, 27.05. 22:00 0.0 l/m2 in 1 Std. -
Fr, 27.05. 21:30 0.0 l/m2 in 1 Std. -
Fr, 27.05. 21:00 0.1 l/m2 in 1 Std. Regen
Fr, 27.05. 20:30 0.1 l/m2 in 1 Std. Schneeregen
Ortszeit Stärke Spitze Richtung
km/h Bft. km/h Grad Sektor
Fr, 27.05. 20:00 29 5 65 290° W
Fr, 27.05. 14:00 33 5 65 310° NW
Fr, 27.05. 8:00 15 3 33 280° W
Fr, 27.05. 2:00 20 4 35 260° W
Do, 26.05. 20:00 11 2 47 280° W
Do, 26.05. 14:00 29 5 50 270° W
Do, 26.05. 8:00 14 3 36 260° W
Do, 26.05. 2:00 17 3 46 240° SW
Ortszeit Stärke Spitze Richtung
km/h Bft. km/h Grad Sektor
Fr, 27.05. 23:30 17 3 30 270° W
Fr, 27.05. 23:20 17 3 - 270° W
Fr, 27.05. 23:10 19 3 - 280° W
Fr, 27.05. 23:00 25 4 50 280° W
Fr, 27.05. 22:50 25 4 - 280° W
Fr, 27.05. 22:40 22 4 - 280° W
Fr, 27.05. 22:30 24 4 46 290° W
Fr, 27.05. 22:00 22 4 43 270° W
Fr, 27.05. 21:30 25 4 43 260° W
Fr, 27.05. 21:00 25 4 58 270° W
Fr, 27.05. 20:30 26 4 48 280° W
Ortszeit Untergrenze Bedeckung Gattung
total tief tief mittel hoch
Fr, 27.05. 20:00 1470 m 6/8 6/8 - - -
Fr, 27.05. 14:00 1500 m 7/8 7/8 - - -
Fr, 27.05. 8:00 1800 m 8/8 7/8 - - -
Fr, 27.05. 2:00 270 m 8/8 8/8 - - -
Do, 26.05. 20:00 1290 m 7/8 7/8 - - -
Do, 26.05. 14:00 1380 m 7/8 7/8 - - -
Do, 26.05. 8:00 240 m 7/8 7/8 - - -
Do, 26.05. 2:00 990 m 8/8 8/8 - - -
Ortszeit Bedeckungsgrad in Achtel und Wolkenuntergrenze
Fr, 27.05. 23:30 1(1020m)
Fr, 27.05. 23:20 1(1020m) 1(1380m) 2(1500m)
Fr, 27.05. 23:10 3
Fr, 27.05. 23:00 1(660m) 7(1170m) 7(1800m)
Fr, 27.05. 22:50 1(660m) 7(1170m) 7(1800m)
Fr, 27.05. 22:40 7
Fr, 27.05. 22:30 5(810m) 7(1500m) 8(1800m)
Fr, 27.05. 22:00 3(1500m) 4(2400m) 5(3000m)
Fr, 27.05. 21:30 6(1500m)
Fr, 27.05. 21:00 7(1500m)
Fr, 27.05. 20:30 1(930m) 3(1290m)
Ortszeit Luftdruck NN (hPa) Tendenz (hPa in 3 Std.)
Fr, 27.05. 20:00 1017 + 0,4
Fr, 27.05. 14:00 1016 + 0,3
Fr, 27.05. 8:00 1016 + 0,9
Fr, 27.05. 2:00 1016 - 1,2
Do, 26.05. 20:00 1017 - 0,5
Do, 26.05. 14:00 1018 + 1,1
Do, 26.05. 8:00 1016 + 1,1
Do, 26.05. 2:00 1014 0,0
Ortszeit Luftdruck NN (hPa) Tendenz (hPa in 3 Std.)
Fr, 27.05. 23:30 1017 - 0,1
Fr, 27.05. 23:20 1017 keine Meldung
Fr, 27.05. 23:10 1017 keine Meldung
Fr, 27.05. 23:00 1017 + 0,2
Fr, 27.05. 22:50 1017 keine Meldung
Fr, 27.05. 22:40 1017 keine Meldung
Fr, 27.05. 22:30 1017 + 0,1
Fr, 27.05. 22:00 1017 - 0,1
Fr, 27.05. 21:30 1017 - 0,1
Fr, 27.05. 21:00 1017 0,0
Fr, 27.05. 20:30 1017 + 0,1
Ortszeit Schneehöhe (cm)
Fr, 27.05. 20:00 0
Fr, 27.05. 14:00 0
Fr, 27.05. 8:00 0
Fr, 27.05. 2:00 0
Do, 26.05. 20:00 0
Do, 26.05. 14:00 0
Do, 26.05. 8:00 0
Do, 26.05. 2:00 0
Ortszeit Schneehöhe (cm)
Fr, 27.05. 23:30 0
Fr, 27.05. 23:20 0
Fr, 27.05. 23:10 0
Fr, 27.05. 23:00 0
Fr, 27.05. 22:50 0
Fr, 27.05. 22:40 0
Fr, 27.05. 22:30 0
Fr, 27.05. 22:00 0
Fr, 27.05. 21:30 0
Fr, 27.05. 21:00 0
Fr, 27.05. 20:30 0
Link zu dieser Seite / Seite empfehlen

Das Wetter in ...